McAlister, New Mexico
Current Conditions -  °F | °C
As of 11:56 PM on Thursday 30 Oct 2014 (Local Time) from K4MR Reporting Station
Clear Clear  
Wind Chill: 43°   Ceiling: Unl
Heat Index: 47°   Visibility: 10mi
Dew Point: 30°   Wind: 8mph
Humidity: 52%   Direction: 130°SE
Pressure: 30.39"   Gusts: NA
Location:  34.69°N, 103.78°W
Report Text: K4MR 310556Z AUTO 13007KT 10SM CLR 08/M01 A3039 RMK AO2 SLP260 T00811013 10173 20075 52014
Loading
Personal Weather Stations






























Interactive Weather Map
Tropical Storm Tracking
New forecast layout! Learn more

10-Day Weather Forecast

Advertisements
Track Severe Weather on mobile